createdAt,value
2019-01-23T00:00:55.415Z,-4.30
2019-01-23T00:01:34.464Z,-4.30
2019-01-23T00:02:07.332Z,-4.30
2019-01-23T00:02:40.173Z,-4.30
2019-01-23T00:03:12.669Z,-4.30
2019-01-23T00:03:45.177Z,-4.40
2019-01-23T00:04:17.685Z,-4.40
2019-01-23T00:04:50.533Z,-4.40
2019-01-23T00:05:23.189Z,-4.40
2019-01-23T00:05:58.541Z,-4.40
2019-01-23T00:06:31.394Z,-4.40
2019-01-23T00:07:04.324Z,-4.40
2019-01-23T00:07:36.821Z,-4.40
2019-01-23T00:08:09.317Z,-4.40
2019-01-23T00:08:41.827Z,-4.40
2019-01-23T00:09:14.612Z,-4.40
2019-01-23T00:09:47.121Z,-4.40
2019-01-23T00:10:19.940Z,-4.40
2019-01-23T00:10:52.444Z,-4.40
2019-01-23T00:11:25.276Z,-4.50
2019-01-23T00:11:57.768Z,-4.40
2019-01-23T00:12:30.612Z,-4.40
2019-01-23T00:13:03.591Z,-4.40
2019-01-23T00:13:36.221Z,-4.50
2019-01-23T00:14:09.160Z,-4.40
2019-01-23T00:14:41.648Z,-4.50
2019-01-23T00:15:14.605Z,-4.40
2019-01-23T00:15:50.604Z,-4.40
2019-01-23T00:16:23.111Z,-4.40
2019-01-23T00:16:55.601Z,-4.40
2019-01-23T00:17:28.472Z,-4.40
2019-01-23T00:18:01.009Z,-4.40
2019-01-23T00:18:33.498Z,-4.40
2019-01-23T00:19:06.000Z,-4.40
2019-01-23T00:19:38.829Z,-4.40
2019-01-23T00:20:11.925Z,-4.40
2019-01-23T00:20:44.437Z,-4.40
2019-01-23T00:21:16.935Z,-4.40
2019-01-23T00:21:49.444Z,-4.40
2019-01-23T00:22:22.099Z,-4.30
2019-01-23T00:22:54.945Z,-4.40
2019-01-23T00:23:27.484Z,-4.30
2019-01-23T00:24:00.316Z,-4.30
2019-01-23T00:24:33.128Z,-4.30
2019-01-23T00:25:06.227Z,-4.30
2019-01-23T00:25:38.729Z,-4.30
2019-01-23T00:26:11.233Z,-4.40
2019-01-23T00:26:43.903Z,-4.40
2019-01-23T00:27:16.685Z,-4.40
2019-01-23T00:27:49.197Z,-4.40
2019-01-23T00:28:21.701Z,-4.40
2019-01-23T00:28:54.232Z,-4.50
2019-01-23T00:29:26.751Z,-4.40
2019-01-23T00:29:59.609Z,-4.40
2019-01-23T00:30:32.116Z,-4.40
2019-01-23T00:31:04.644Z,-4.50
2019-01-23T00:31:37.148Z,-4.50
2019-01-23T00:32:09.653Z,-4.50
2019-01-23T00:32:42.156Z,-4.40
2019-01-23T00:33:14.652Z,-4.50
2019-01-23T00:33:47.159Z,-4.40
2019-01-23T00:34:19.694Z,-4.50
2019-01-23T00:34:52.528Z,-4.40
2019-01-23T00:35:25.345Z,-4.40
2019-01-23T00:35:57.841Z,-4.50
2019-01-23T00:36:30.950Z,-4.50
2019-01-23T00:37:03.772Z,-4.50
2019-01-23T00:37:36.273Z,-4.50
2019-01-23T00:38:08.776Z,-4.50
2019-01-23T00:38:41.631Z,-4.50
2019-01-23T00:39:14.502Z,-4.60
2019-01-23T00:39:47.519Z,-4.50
2019-01-23T00:40:20.044Z,-4.60
2019-01-23T00:40:52.544Z,-4.50
2019-01-23T00:41:25.368Z,-4.50
2019-01-23T00:41:58.244Z,-4.50
2019-01-23T00:42:30.744Z,-4.50
2019-01-23T00:43:03.353Z,-4.50
2019-01-23T00:43:35.865Z,-4.50
2019-01-23T00:44:08.364Z,-4.50
2019-01-23T00:44:41.341Z,-4.50
2019-01-23T00:45:14.436Z,-4.50
2019-01-23T00:45:47.107Z,-4.50
2019-01-23T00:46:19.625Z,-4.50
2019-01-23T00:46:52.134Z,-4.50
2019-01-23T00:47:24.629Z,-4.50
2019-01-23T00:47:57.133Z,-4.50
2019-01-23T00:48:29.628Z,-4.50
2019-01-23T00:49:02.128Z,-4.60
2019-01-23T00:49:34.628Z,-4.50
2019-01-23T00:50:07.945Z,-4.60
2019-01-23T00:50:40.479Z,-4.60
2019-01-23T00:51:13.453Z,-4.50
2019-01-23T00:51:45.968Z,-4.50
2019-01-23T00:52:18.777Z,-4.50
2019-01-23T00:52:51.281Z,-4.50
2019-01-23T00:53:23.787Z,-4.50
2019-01-23T00:53:56.287Z,-4.50
2019-01-23T00:54:29.140Z,-4.50
2019-01-23T00:55:01.697Z,-4.60
2019-01-23T00:55:34.181Z,-4.50
2019-01-23T00:56:06.764Z,-4.50
2019-01-23T00:56:39.269Z,-4.50
2019-01-23T00:57:12.061Z,-4.50
2019-01-23T00:57:44.560Z,-4.50
2019-01-23T00:58:17.068Z,-4.50
2019-01-23T00:58:49.573Z,-4.50
2019-01-23T00:59:22.067Z,-4.50
2019-01-23T00:59:54.574Z,-4.50
2019-01-23T01:00:27.196Z,-4.50
2019-01-23T01:00:59.694Z,-4.50
2019-01-23T01:01:32.220Z,-4.50
2019-01-23T01:02:05.005Z,-4.50
2019-01-23T01:02:37.504Z,-4.60
2019-01-23T01:03:10.314Z,-4.60
2019-01-23T01:03:44.336Z,-4.60
2019-01-23T01:04:16.924Z,-4.60
2019-01-23T01:04:49.416Z,-4.60
2019-01-23T01:05:22.021Z,-4.70
2019-01-23T01:05:54.857Z,-4.70
2019-01-23T01:06:27.356Z,-4.70
2019-01-23T01:07:00.245Z,-4.70
2019-01-23T01:07:33.037Z,-4.70
2019-01-23T01:08:05.544Z,-4.70
2019-01-23T01:08:38.048Z,-4.70
2019-01-23T01:09:10.549Z,-4.70
2019-01-23T01:09:43.057Z,-4.70
2019-01-23T01:10:16.751Z,-4.70
2019-01-23T01:10:49.613Z,-4.60
2019-01-23T01:11:22.117Z,-4.60
2019-01-23T01:11:54.928Z,-4.70
2019-01-23T01:12:27.733Z,-4.70
2019-01-23T01:13:00.237Z,-4.70
2019-01-23T01:13:32.745Z,-4.70
2019-01-23T01:14:05.265Z,-4.60
2019-01-23T01:14:37.767Z,-4.70
2019-01-23T01:15:13.453Z,-4.70
2019-01-23T01:15:45.339Z,-4.70
2019-01-23T01:16:17.844Z,-4.70
2019-01-23T01:16:50.344Z,-4.60
2019-01-23T01:17:22.848Z,-4.60
2019-01-23T01:17:55.809Z,-4.60
2019-01-23T01:18:28.313Z,-4.60
2019-01-23T01:19:00.810Z,-4.60
2019-01-23T01:19:33.309Z,-4.60
2019-01-23T01:20:07.630Z,-4.70
2019-01-23T01:20:40.471Z,-4.60
2019-01-23T01:21:12.968Z,-4.60
2019-01-23T01:21:45.478Z,-4.60
2019-01-23T01:22:17.987Z,-4.70
2019-01-23T01:22:50.482Z,-4.70
2019-01-23T01:23:23.301Z,-4.70
2019-01-23T01:23:55.795Z,-4.70
2019-01-23T01:24:28.301Z,-4.70
2019-01-23T01:25:00.809Z,-4.70
2019-01-23T01:25:33.318Z,-4.70
2019-01-23T01:26:05.812Z,-4.70
2019-01-23T01:26:38.662Z,-4.70
2019-01-23T01:27:11.164Z,-4.70
2019-01-23T01:27:44.500Z,-4.70
2019-01-23T01:28:17.009Z,-4.60
2019-01-23T01:28:55.836Z,-4.60
2019-01-23T01:29:24.240Z,-4.60
2019-01-23T01:29:56.747Z,-4.60
2019-01-23T01:30:29.883Z,-4.60
2019-01-23T01:31:02.838Z,-4.70
2019-01-23T01:31:35.382Z,-4.70
2019-01-23T01:32:07.887Z,-4.70
2019-01-23T01:32:40.372Z,-4.70
2019-01-23T01:33:12.884Z,-4.70
2019-01-23T01:33:45.381Z,-4.70
2019-01-23T01:34:17.920Z,-4.70
2019-01-23T01:34:50.420Z,-4.70
2019-01-23T01:35:22.930Z,-4.70
2019-01-23T01:35:55.433Z,-4.70
2019-01-23T01:36:27.936Z,-4.70
2019-01-23T01:37:00.989Z,-4.70
2019-01-23T01:37:33.852Z,-4.70
2019-01-23T01:38:06.365Z,-4.70
2019-01-23T01:38:39.060Z,-4.70
2019-01-23T01:39:12.224Z,-4.70
2019-01-23T01:39:45.120Z,-4.70
2019-01-23T01:40:18.828Z,-4.60
2019-01-23T01:40:51.288Z,-4.60
2019-01-23T01:41:23.793Z,-4.60
2019-01-23T01:41:56.292Z,-4.70
2019-01-23T01:42:28.798Z,-4.70
2019-01-23T01:43:01.305Z,-4.70
2019-01-23T01:43:33.812Z,-4.70
2019-01-23T01:44:06.312Z,-4.70
2019-01-23T01:44:38.813Z,-4.60
2019-01-23T01:45:12.013Z,-4.60
2019-01-23T01:45:44.562Z,-4.60
2019-01-23T01:46:17.061Z,-4.60
2019-01-23T01:46:49.564Z,-4.60
2019-01-23T01:47:22.476Z,-4.60
2019-01-23T01:47:54.984Z,-4.60
2019-01-23T01:48:27.496Z,-4.60
2019-01-23T01:49:00.002Z,-4.60
2019-01-23T01:49:32.792Z,-4.50
2019-01-23T01:50:08.128Z,-4.50
2019-01-23T01:50:40.965Z,-4.50
2019-01-23T01:51:13.478Z,-4.50
2019-01-23T01:51:45.987Z,-4.50
2019-01-23T01:52:18.793Z,-4.60
2019-01-23T01:52:51.724Z,-4.50
2019-01-23T01:53:24.222Z,-4.50
2019-01-23T01:53:56.731Z,-4.50
2019-01-23T01:54:29.233Z,-4.50
2019-01-23T01:55:01.743Z,-4.50
2019-01-23T01:55:34.233Z,-4.60
2019-01-23T01:56:06.764Z,-4.60
2019-01-23T01:56:39.265Z,-4.70
2019-01-23T01:57:11.769Z,-4.60
2019-01-23T01:57:44.569Z,-4.70
2019-01-23T01:58:17.568Z,-4.60
2019-01-23T01:58:50.072Z,-4.60
2019-01-23T01:59:22.573Z,-4.70
2019-01-23T01:59:55.073Z,-4.70
2019-01-23T02:00:27.566Z,-4.70
2019-01-23T02:01:00.892Z,-4.70
2019-01-23T02:01:33.429Z,-4.70
2019-01-23T02:02:06.640Z,-4.70
2019-01-23T02:02:39.446Z,-4.70
2019-01-23T02:03:15.447Z,-4.70
2019-01-23T02:03:46.257Z,-4.70
2019-01-23T02:04:19.345Z,-4.70
2019-01-23T02:04:51.850Z,-4.70
2019-01-23T02:05:24.344Z,-4.70
2019-01-23T02:05:56.850Z,-4.70
2019-01-23T02:06:29.460Z,-4.70
2019-01-23T02:07:01.981Z,-4.80
2019-01-23T02:07:34.477Z,-4.80
2019-01-23T02:08:06.974Z,-4.80
2019-01-23T02:08:39.885Z,-4.80
2019-01-23T02:09:12.384Z,-4.80
2019-01-23T02:09:45.597Z,-4.80
2019-01-23T02:10:19.617Z,-4.80
2019-01-23T02:10:52.127Z,-4.80
2019-01-23T02:11:24.933Z,-4.80
2019-01-23T02:11:58.196Z,-4.80
2019-01-23T02:12:30.736Z,-4.80
2019-01-23T02:13:03.636Z,-4.80
2019-01-23T02:13:36.444Z,-4.80
2019-01-23T02:14:09.377Z,-4.80
2019-01-23T02:14:41.888Z,-4.80
2019-01-23T02:15:16.880Z,-4.80
2019-01-23T02:15:49.385Z,-4.80
2019-01-23T02:16:22.288Z,-4.80
2019-01-23T02:16:54.784Z,-4.80
2019-01-23T02:17:27.296Z,-4.80
2019-01-23T02:18:00.181Z,-4.80
2019-01-23T02:18:32.684Z,-4.80
2019-01-23T02:19:05.187Z,-4.80
2019-01-23T02:19:37.685Z,-4.80
2019-01-23T02:20:17.114Z,-4.80
2019-01-23T02:20:49.998Z,-4.80
2019-01-23T02:21:22.505Z,-4.70
2019-01-23T02:21:55.004Z,-4.70
2019-01-23T02:22:27.902Z,-4.70
2019-01-23T02:23:00.395Z,-4.80
2019-01-23T02:23:32.921Z,-4.80
2019-01-23T02:24:05.766Z,-4.80
2019-01-23T02:24:38.276Z,-4.80
2019-01-23T02:25:11.084Z,-4.80
2019-01-23T02:25:44.021Z,-4.80
2019-01-23T02:26:16.966Z,-4.80
2019-01-23T02:26:49.473Z,-4.80
2019-01-23T02:27:21.972Z,-4.80
2019-01-23T02:27:54.756Z,-4.80
2019-01-23T02:28:27.256Z,-4.80
2019-01-23T02:28:59.782Z,-4.90
2019-01-23T02:29:32.280Z,-4.90
2019-01-23T02:30:05.726Z,-4.90
2019-01-23T02:30:38.228Z,-4.90
2019-01-23T02:31:10.731Z,-4.90
2019-01-23T02:31:43.241Z,-4.90
2019-01-23T02:32:15.752Z,-4.90
2019-01-23T02:32:48.403Z,-4.90
2019-01-23T02:33:21.196Z,-4.90
2019-01-23T02:33:53.692Z,-4.90
2019-01-23T02:34:26.221Z,-4.80
2019-01-23T02:34:58.724Z,-4.80
2019-01-23T02:35:31.242Z,-4.90
2019-01-23T02:36:04.329Z,-4.80
2019-01-23T02:36:37.269Z,-4.80
2019-01-23T02:37:10.141Z,-4.80
2019-01-23T02:37:42.638Z,-4.80
2019-01-23T02:38:15.137Z,-4.80
2019-01-23T02:38:47.629Z,-4.90
2019-01-23T02:39:20.471Z,-4.90
2019-01-23T02:39:53.330Z,-5.00
2019-01-23T02:40:25.821Z,-4.90
2019-01-23T02:40:58.322Z,-5.00
2019-01-23T02:41:31.157Z,-4.90
2019-01-23T02:42:03.761Z,-5.00
2019-01-23T02:42:36.256Z,-4.90
2019-01-23T02:43:08.764Z,-4.90
2019-01-23T02:43:41.261Z,-4.90
2019-01-23T02:44:13.752Z,-4.90
2019-01-23T02:44:46.243Z,-4.80
2019-01-23T02:45:19.882Z,-4.90
2019-01-23T02:45:52.384Z,-4.90
2019-01-23T02:46:25.497Z,-4.90
2019-01-23T02:46:58.289Z,-4.90
2019-01-23T02:47:31.125Z,-4.90
2019-01-23T02:48:03.628Z,-4.90
2019-01-23T02:48:36.129Z,-4.90
2019-01-23T02:49:08.626Z,-5.00
2019-01-23T02:49:41.118Z,-5.00
2019-01-23T02:50:14.725Z,-5.00
2019-01-23T02:50:47.594Z,-5.00
2019-01-23T02:51:20.092Z,-5.00
2019-01-23T02:51:52.964Z,-5.10
2019-01-23T02:52:25.456Z,-5.10
2019-01-23T02:52:58.770Z,-5.10
2019-01-23T02:53:31.272Z,-5.00
2019-01-23T02:54:04.200Z,-5.00
2019-01-23T02:54:36.731Z,-5.00
2019-01-23T02:55:09.328Z,-5.00
2019-01-23T02:55:42.140Z,-5.00
2019-01-23T02:56:14.681Z,-5.00
2019-01-23T02:56:47.838Z,-5.00
2019-01-23T02:57:20.680Z,-5.00
2019-01-23T02:57:53.472Z,-5.00
2019-01-23T02:58:25.972Z,-5.00
2019-01-23T02:58:58.462Z,-5.00
2019-01-23T02:59:30.975Z,-5.00
2019-01-23T03:00:05.709Z,-5.00
2019-01-23T03:00:38.221Z,-5.00
2019-01-23T03:01:10.885Z,-4.90
2019-01-23T03:01:43.416Z,-4.90
2019-01-23T03:02:15.920Z,-4.90
2019-01-23T03:02:49.244Z,-4.90
2019-01-23T03:03:21.752Z,-4.80
2019-01-23T03:03:54.406Z,-4.80
2019-01-23T03:04:27.197Z,-4.80
2019-01-23T03:04:59.705Z,-4.80
2019-01-23T03:05:32.205Z,-4.80
2019-01-23T03:06:04.980Z,-4.80
2019-01-23T03:06:37.476Z,-4.90
2019-01-23T03:07:10.005Z,-4.90
2019-01-23T03:07:42.894Z,-4.90
2019-01-23T03:08:15.672Z,-4.90
2019-01-23T03:08:48.179Z,-4.90
2019-01-23T03:09:20.676Z,-4.90
2019-01-23T03:09:53.190Z,-5.00
2019-01-23T03:10:26.162Z,-5.00
2019-01-23T03:10:58.653Z,-4.90
2019-01-23T03:11:31.162Z,-5.00
2019-01-23T03:12:04.086Z,-5.10
2019-01-23T03:12:36.605Z,-5.00
2019-01-23T03:13:09.100Z,-5.00
2019-01-23T03:13:41.601Z,-5.00
2019-01-23T03:14:14.400Z,-5.00
2019-01-23T03:14:46.909Z,-5.00
2019-01-23T03:15:19.429Z,-5.00
2019-01-23T03:15:52.079Z,-5.00
2019-01-23T03:16:24.585Z,-5.00
2019-01-23T03:16:57.384Z,-5.00
2019-01-23T03:17:30.227Z,-5.00
2019-01-23T03:18:02.756Z,-5.00
2019-01-23T03:18:35.558Z,-5.00
2019-01-23T03:19:08.157Z,-5.10
2019-01-23T03:19:40.665Z,-5.10
2019-01-23T03:20:14.885Z,-5.10
2019-01-23T03:20:47.862Z,-5.10
2019-01-23T03:21:20.354Z,-5.10
2019-01-23T03:21:53.225Z,-5.20
2019-01-23T03:22:25.723Z,-5.20
2019-01-23T03:22:58.517Z,-5.20
2019-01-23T03:23:31.421Z,-5.20
2019-01-23T03:24:03.935Z,-5.20
2019-01-23T03:24:36.421Z,-5.10
2019-01-23T03:25:10.276Z,-5.10
2019-01-23T03:25:42.765Z,-5.10
2019-01-23T03:26:15.561Z,-5.10
2019-01-23T03:26:48.409Z,-5.00
2019-01-23T03:27:20.919Z,-5.10
2019-01-23T03:27:53.705Z,-5.10
2019-01-23T03:28:26.210Z,-5.10
2019-01-23T03:28:58.736Z,-5.10
2019-01-23T03:29:31.241Z,-5.10
2019-01-23T03:30:05.693Z,-5.10
2019-01-23T03:30:38.573Z,-5.10
2019-01-23T03:31:11.066Z,-5.10
2019-01-23T03:31:44.022Z,-5.10
2019-01-23T03:32:16.680Z,-5.10
2019-01-23T03:32:49.208Z,-5.10
2019-01-23T03:33:21.724Z,-5.10
2019-01-23T03:33:54.600Z,-5.10
2019-01-23T03:34:27.144Z,-5.10
2019-01-23T03:34:59.965Z,-5.10
2019-01-23T03:35:32.461Z,-5.10
2019-01-23T03:36:05.429Z,-5.10
2019-01-23T03:36:37.927Z,-5.20
2019-01-23T03:37:10.430Z,-5.10
2019-01-23T03:37:43.425Z,-5.20
2019-01-23T03:38:15.932Z,-5.20
2019-01-23T03:38:48.433Z,-5.20
2019-01-23T03:39:21.255Z,-5.20
2019-01-23T03:39:53.785Z,-5.20
2019-01-23T03:40:26.284Z,-5.10
2019-01-23T03:40:58.786Z,-5.10
2019-01-23T03:41:31.487Z,-5.20
2019-01-23T03:42:04.100Z,-5.10
2019-01-23T03:42:36.600Z,-5.10
2019-01-23T03:43:09.100Z,-5.10
2019-01-23T03:43:41.997Z,-5.10
2019-01-23T03:44:14.911Z,-5.10
2019-01-23T03:44:47.410Z,-5.10
2019-01-23T03:45:19.949Z,-5.10
2019-01-23T03:45:52.456Z,-5.00
2019-01-23T03:46:24.947Z,-5.00
2019-01-23T03:46:57.445Z,-5.10
2019-01-23T03:47:29.977Z,-5.10
2019-01-23T03:48:02.490Z,-5.10
2019-01-23T03:48:35.475Z,-5.10
2019-01-23T03:49:07.972Z,-5.10
2019-01-23T03:49:40.472Z,-5.10
2019-01-23T03:50:14.940Z,-5.20
2019-01-23T03:50:47.478Z,-5.20
2019-01-23T03:51:20.642Z,-5.20
2019-01-23T03:51:53.151Z,-5.20
2019-01-23T03:52:25.652Z,-5.30
2019-01-23T03:52:58.245Z,-5.30
2019-01-23T03:53:30.752Z,-5.30
2019-01-23T03:54:03.553Z,-5.30
2019-01-23T03:54:36.060Z,-5.20
2019-01-23T03:55:09.589Z,-5.30
2019-01-23T03:55:42.098Z,-5.20
2019-01-23T03:56:15.048Z,-5.20
2019-01-23T03:56:47.917Z,-5.20
2019-01-23T03:57:20.421Z,-5.20
2019-01-23T03:57:52.925Z,-5.20
2019-01-23T03:58:25.451Z,-5.30
2019-01-23T03:58:58.369Z,-5.30
2019-01-23T03:59:32.234Z,-5.30
2019-01-23T04:00:06.393Z,-5.30
2019-01-23T04:00:39.344Z,-5.30
2019-01-23T04:01:11.845Z,-5.30
2019-01-23T04:01:44.377Z,-5.30
2019-01-23T04:02:16.902Z,-5.30
2019-01-23T04:02:50.923Z,-5.30
2019-01-23T04:03:23.424Z,-5.30
2019-01-23T04:03:55.938Z,-5.20
2019-01-23T04:04:28.425Z,-5.20
2019-01-23T04:05:00.925Z,-5.20
2019-01-23T04:05:33.429Z,-5.30
2019-01-23T04:06:06.614Z,-5.20
2019-01-23T04:06:39.213Z,-5.20
2019-01-23T04:07:12.112Z,-5.20
2019-01-23T04:07:45.199Z,-5.30
2019-01-23T04:08:17.692Z,-5.20
2019-01-23T04:08:50.549Z,-5.20
2019-01-23T04:09:23.050Z,-5.20
2019-01-23T04:09:56.082Z,-5.20
2019-01-23T04:10:28.589Z,-5.20
2019-01-23T04:11:01.081Z,-5.20
2019-01-23T04:11:33.591Z,-5.10
2019-01-23T04:12:06.057Z,-5.10
2019-01-23T04:12:38.942Z,-5.10
2019-01-23T04:13:11.417Z,-5.10
2019-01-23T04:13:43.898Z,-5.10
2019-01-23T04:14:16.378Z,-5.10
2019-01-23T04:14:48.847Z,-5.10
2019-01-23T04:15:21.323Z,-5.10
2019-01-23T04:15:54.780Z,-5.10
2019-01-23T04:16:27.267Z,-5.10
2019-01-23T04:17:00.103Z,-5.10
2019-01-23T04:17:32.596Z,-5.10
2019-01-23T04:18:05.087Z,-5.10
2019-01-23T04:18:37.564Z,-5.10
2019-01-23T04:19:10.388Z,-5.10
2019-01-23T04:19:42.868Z,-5.20
2019-01-23T04:20:17.241Z,-5.10
2019-01-23T04:20:49.768Z,-5.10
2019-01-23T04:21:22.744Z,-5.10
2019-01-23T04:21:55.521Z,-5.10
2019-01-23T04:22:27.996Z,-5.10
2019-01-23T04:23:00.477Z,-5.10
2019-01-23T04:23:32.980Z,-5.10
2019-01-23T04:24:05.468Z,-5.10
2019-01-23T04:24:37.939Z,-5.00
2019-01-23T04:25:10.539Z,-5.00
2019-01-23T04:25:46.833Z,-5.00
2019-01-23T04:26:19.304Z,-5.00
2019-01-23T04:26:51.796Z,-4.90
2019-01-23T04:27:24.277Z,-4.90
2019-01-23T04:27:56.771Z,-4.90
2019-01-23T04:28:29.235Z,-4.90
2019-01-23T04:29:01.743Z,-4.90
2019-01-23T04:29:39.511Z,-4.90
2019-01-23T04:30:11.679Z,-4.80
2019-01-23T04:30:44.679Z,-4.80
2019-01-23T04:31:17.153Z,-4.80
2019-01-23T04:31:49.957Z,-4.80
2019-01-23T04:32:22.434Z,-4.80
2019-01-23T04:32:54.908Z,-4.80
2019-01-23T04:33:27.382Z,-4.80
2019-01-23T04:33:59.848Z,-4.80
2019-01-23T04:34:32.360Z,-4.80
2019-01-23T04:35:05.032Z,-4.90
2019-01-23T04:35:37.529Z,-4.90
2019-01-23T04:36:10.012Z,-4.80
2019-01-23T04:36:42.819Z,-4.80
2019-01-23T04:37:15.297Z,-4.80
2019-01-23T04:37:48.256Z,-4.80
2019-01-23T04:38:21.120Z,-4.80
2019-01-23T04:38:53.893Z,-4.80
2019-01-23T04:39:26.380Z,-4.80
2019-01-23T04:39:59.212Z,-4.80
2019-01-23T04:40:31.696Z,-4.80
2019-01-23T04:41:04.179Z,-4.80
2019-01-23T04:41:37.016Z,-4.80
2019-01-23T04:42:09.501Z,-4.80
2019-01-23T04:42:42.009Z,-4.80
2019-01-23T04:43:14.807Z,-4.80
2019-01-23T04:43:47.300Z,-4.70
2019-01-23T04:44:20.268Z,-4.70
2019-01-23T04:44:52.752Z,-4.70
2019-01-23T04:45:25.252Z,-4.70
2019-01-23T04:45:57.727Z,-4.70
2019-01-23T04:46:30.206Z,-4.70
2019-01-23T04:47:02.687Z,-4.60
2019-01-23T04:47:36.890Z,-4.60
2019-01-23T04:48:09.377Z,-4.60
2019-01-23T04:48:42.180Z,-4.60
2019-01-23T04:49:14.648Z,-4.60
2019-01-23T04:49:47.125Z,-4.60
2019-01-23T04:50:19.612Z,-4.60
2019-01-23T04:51:17.687Z,-4.60
2019-01-23T04:51:58.975Z,-4.60
2019-01-23T04:52:39.115Z,-4.60
2019-01-23T04:53:16.194Z,-4.50
2019-01-23T04:53:49.063Z,-4.50
2019-01-23T04:54:21.551Z,-4.50
2019-01-23T04:54:54.023Z,-4.50
2019-01-23T04:55:26.508Z,-4.50
2019-01-23T04:55:59.420Z,-4.50
2019-01-23T04:56:32.492Z,-4.50
2019-01-23T04:57:05.271Z,-4.50
2019-01-23T04:57:38.143Z,-4.40
2019-01-23T04:58:10.632Z,-4.40
2019-01-23T04:58:43.116Z,-4.40
2019-01-23T04:59:15.588Z,-4.40
2019-01-23T04:59:48.060Z,-4.40
2019-01-23T05:00:23.208Z,-4.40
2019-01-23T05:00:56.080Z,-4.40
2019-01-23T05:01:28.942Z,-4.40
2019-01-23T05:02:01.861Z,-4.40
2019-01-23T05:02:34.653Z,-4.40
2019-01-23T05:03:07.213Z,-4.40
2019-01-23T05:03:39.687Z,-4.40
2019-01-23T05:04:12.202Z,-4.40
2019-01-23T05:04:44.713Z,-4.40
2019-01-23T05:05:17.177Z,-4.40
2019-01-23T05:05:50.044Z,-4.50
2019-01-23T05:06:22.516Z,-4.40
2019-01-23T05:06:55.010Z,-4.40
2019-01-23T05:07:27.887Z,-4.40
2019-01-23T05:08:00.368Z,-4.40
2019-01-23T05:08:32.858Z,-4.40
2019-01-23T05:09:08.241Z,-4.40
2019-01-23T05:09:40.707Z,-4.40
2019-01-23T05:10:13.189Z,-4.30
2019-01-23T05:10:45.663Z,-4.30
2019-01-23T05:11:18.536Z,-4.30
2019-01-23T05:11:51.340Z,-4.40
2019-01-23T05:12:23.840Z,-4.30
2019-01-23T05:12:56.360Z,-4.30
2019-01-23T05:13:28.823Z,-4.30
2019-01-23T05:14:02.207Z,-4.40
2019-01-23T05:14:36.251Z,-4.40
2019-01-23T05:15:08.841Z,-4.40
2019-01-23T05:15:41.316Z,-4.30
2019-01-23T05:16:13.781Z,-4.40
2019-01-23T05:16:46.559Z,-4.40
2019-01-23T05:17:19.027Z,-4.40
2019-01-23T05:17:51.517Z,-4.50
2019-01-23T05:18:24.027Z,-4.50
2019-01-23T05:18:56.909Z,-4.50
2019-01-23T05:19:29.677Z,-4.50
2019-01-23T05:20:02.294Z,-4.40
2019-01-23T05:20:40.511Z,-4.40
2019-01-23T05:21:12.991Z,-4.40
2019-01-23T05:21:45.476Z,-4.50
2019-01-23T05:22:18.327Z,-4.40
2019-01-23T05:22:50.869Z,-4.40
2019-01-23T05:23:23.343Z,-4.30
2019-01-23T05:23:55.860Z,-4.30
2019-01-23T05:24:28.616Z,-4.30
2019-01-23T05:25:01.100Z,-4.30
2019-01-23T05:25:33.584Z,-4.30
2019-01-23T05:26:06.416Z,-4.30
2019-01-23T05:26:39.176Z,-4.20
2019-01-23T05:27:11.652Z,-4.30
2019-01-23T05:27:44.409Z,-4.20
2019-01-23T05:28:17.247Z,-4.20
2019-01-23T05:28:50.119Z,-4.20
2019-01-23T05:29:22.752Z,-4.20
2019-01-23T05:29:55.533Z,-4.20
2019-01-23T05:30:28.002Z,-4.20
2019-01-23T05:31:00.475Z,-4.20
2019-01-23T05:31:32.971Z,-4.20
2019-01-23T05:32:05.971Z,-4.20
2019-01-23T05:32:38.778Z,-4.20
2019-01-23T05:33:11.243Z,-4.20
2019-01-23T05:33:43.725Z,-4.20
2019-01-23T05:34:16.207Z,-4.20
2019-01-23T05:34:48.985Z,-4.20
2019-01-23T05:35:21.796Z,-4.20
2019-01-23T05:35:54.555Z,-4.30
2019-01-23T05:36:27.328Z,-4.30
2019-01-23T05:36:59.808Z,-4.30
2019-01-23T05:37:32.277Z,-4.30
2019-01-23T05:38:04.761Z,-4.30
2019-01-23T05:38:37.231Z,-4.30
2019-01-23T05:39:09.699Z,-4.20
2019-01-23T05:39:42.506Z,-4.20
2019-01-23T05:40:15.544Z,-4.20
2019-01-23T05:40:48.354Z,-4.20
2019-01-23T05:41:20.834Z,-4.20
2019-01-23T05:41:53.632Z,-4.20
2019-01-23T05:42:26.111Z,-4.20
2019-01-23T05:42:58.909Z,-4.20
2019-01-23T05:43:31.375Z,-4.20
2019-01-23T05:44:03.955Z,-4.20
2019-01-23T05:44:36.436Z,-4.20
2019-01-23T05:45:10.613Z,-4.20
2019-01-23T05:45:43.193Z,-4.20
2019-01-23T05:46:16.032Z,-4.20
2019-01-23T05:46:48.506Z,-4.20
2019-01-23T05:47:20.988Z,-4.30
2019-01-23T05:47:53.820Z,-4.30
2019-01-23T05:48:26.301Z,-4.20
2019-01-23T05:48:58.819Z,-4.20
2019-01-23T05:49:31.296Z,-4.20
2019-01-23T05:50:05.445Z,-4.20
2019-01-23T05:50:37.923Z,-4.20
2019-01-23T05:51:10.428Z,-4.20
2019-01-23T05:51:42.900Z,-4.20
2019-01-23T05:52:15.374Z,-4.20
2019-01-23T05:52:48.411Z,-4.20
2019-01-23T05:53:21.203Z,-4.20
2019-01-23T05:53:53.668Z,-4.20
2019-01-23T05:54:26.147Z,-4.20
2019-01-23T05:54:59.016Z,-4.20
2019-01-23T05:55:31.502Z,-4.20
2019-01-23T05:56:04.151Z,-4.20
2019-01-23T05:56:36.648Z,-4.20
2019-01-23T05:57:09.135Z,-4.20
2019-01-23T05:57:42.009Z,-4.20
2019-01-23T05:58:14.475Z,-4.20
2019-01-23T05:58:46.944Z,-4.20
2019-01-23T05:59:19.923Z,-4.20
2019-01-23T05:59:52.414Z,-4.20
2019-01-23T06:00:24.883Z,-4.20
2019-01-23T06:00:57.364Z,-4.20
2019-01-23T06:01:29.836Z,-4.20
2019-01-23T06:02:02.351Z,-4.20
2019-01-23T06:02:35.280Z,-4.20
2019-01-23T06:03:07.751Z,-4.20
2019-01-23T06:03:40.517Z,-4.20
2019-01-23T06:04:12.996Z,-4.20
2019-01-23T06:04:45.842Z,-4.20
2019-01-23T06:05:18.797Z,-4.20
2019-01-23T06:05:51.643Z,-4.10
2019-01-23T06:06:24.587Z,-4.10
2019-01-23T06:06:57.066Z,-4.10
2019-01-23T06:07:29.585Z,-4.10
2019-01-23T06:08:02.353Z,-4.10
2019-01-23T06:08:35.111Z,-4.10
2019-01-23T06:09:08.351Z,-4.10
2019-01-23T06:09:41.193Z,-4.10
2019-01-23T06:10:13.769Z,-4.10
2019-01-23T06:10:46.523Z,-4.10
2019-01-23T06:11:18.994Z,-4.10
2019-01-23T06:11:51.476Z,-4.10
2019-01-23T06:12:23.977Z,-4.10
2019-01-23T06:12:56.483Z,-4.10
2019-01-23T06:13:28.959Z,-4.10
2019-01-23T06:14:01.427Z,-4.10
2019-01-23T06:14:34.341Z,-4.10
2019-01-23T06:15:07.836Z,-4.10
2019-01-23T06:15:40.720Z,-4.10
2019-01-23T06:16:13.199Z,-4.10
2019-01-23T06:16:45.675Z,-4.10
2019-01-23T06:17:18.176Z,-4.10
2019-01-23T06:17:50.643Z,-4.10
2019-01-23T06:18:23.172Z,-4.10
2019-01-23T06:18:56.028Z,-4.20
2019-01-23T06:19:28.507Z,-4.10
2019-01-23T06:20:01.500Z,-4.10
2019-01-23T06:20:33.940Z,-4.10
2019-01-23T06:21:06.863Z,-4.10
2019-01-23T06:21:39.544Z,-4.10
2019-01-23T06:22:12.395Z,-4.10
2019-01-23T06:22:44.971Z,-4.10
2019-01-23T06:23:17.570Z,-4.10
2019-01-23T06:23:50.208Z,-4.10
2019-01-23T06:24:22.769Z,-4.10
2019-01-23T06:24:55.299Z,-4.10
2019-01-23T06:25:28.156Z,-4.10
2019-01-23T06:26:00.627Z,-4.10
2019-01-23T06:26:33.168Z,-4.10
2019-01-23T06:27:06.941Z,-4.10
2019-01-23T06:27:39.808Z,-4.10
2019-01-23T06:28:12.639Z,-4.10
2019-01-23T06:28:45.128Z,-4.10
2019-01-23T06:29:18.079Z,-4.10
2019-01-23T06:29:50.546Z,-4.10
2019-01-23T06:30:24.230Z,-4.10
2019-01-23T06:30:56.704Z,-4.00
2019-01-23T06:31:29.465Z,-4.00
2019-01-23T06:32:02.219Z,-4.10
2019-01-23T06:32:34.687Z,-4.10
2019-01-23T06:33:07.153Z,-4.10
2019-01-23T06:33:39.901Z,-4.10
2019-01-23T06:34:12.380Z,-4.10
2019-01-23T06:34:44.892Z,-4.10
2019-01-23T06:35:17.357Z,-4.10
2019-01-23T06:35:49.897Z,-4.00
2019-01-23T06:36:22.368Z,-4.10
2019-01-23T06:36:54.843Z,-4.10
2019-01-23T06:37:27.312Z,-4.10
2019-01-23T06:37:59.799Z,-4.20
2019-01-23T06:38:32.267Z,-4.10
2019-01-23T06:39:07.071Z,-4.20
2019-01-23T06:39:39.980Z,-4.30
2019-01-23T06:40:13.839Z,-4.30
2019-01-23T06:40:46.308Z,-4.20
2019-01-23T06:41:18.779Z,-4.20
2019-01-23T06:41:51.393Z,-4.20
2019-01-23T06:42:23.871Z,-4.30
2019-01-23T06:42:56.356Z,-4.30
2019-01-23T06:43:29.187Z,-4.30
2019-01-23T06:44:01.643Z,-4.30
2019-01-23T06:44:34.456Z,-4.30
2019-01-23T06:45:08.752Z,-4.20
2019-01-23T06:45:41.860Z,-4.30
2019-01-23T06:46:14.668Z,-4.30
2019-01-23T06:46:47.140Z,-4.30
2019-01-23T06:47:19.628Z,-4.20
2019-01-23T06:47:52.468Z,-4.20
2019-01-23T06:48:24.936Z,-4.30
2019-01-23T06:48:57.751Z,-4.20
2019-01-23T06:49:30.568Z,-4.20
2019-01-23T06:50:04.283Z,-4.20
2019-01-23T06:50:37.152Z,-4.20
2019-01-23T06:51:09.692Z,-4.20
2019-01-23T06:51:42.866Z,-4.20
2019-01-23T06:52:15.627Z,-4.20
2019-01-23T06:52:48.111Z,-4.20
2019-01-23T06:53:21.268Z,-4.30
2019-01-23T06:53:54.138Z,-4.30
2019-01-23T06:54:26.612Z,-4.30
2019-01-23T06:54:59.086Z,-4.30
2019-01-23T06:55:32.176Z,-4.30
2019-01-23T06:56:04.643Z,-4.30
2019-01-23T06:56:37.162Z,-4.30
2019-01-23T06:57:09.655Z,-4.30
2019-01-23T06:57:42.492Z,-4.30
2019-01-23T06:58:15.672Z,-4.20
2019-01-23T06:58:48.144Z,-4.30
2019-01-23T06:59:20.616Z,-4.30
2019-01-23T06:59:53.096Z,-4.20
2019-01-23T07:00:25.779Z,-4.20
2019-01-23T07:00:58.251Z,-4.20
2019-01-23T07:01:30.741Z,-4.20
2019-01-23T07:02:04.280Z,-4.10
2019-01-23T07:02:36.764Z,-4.20
2019-01-23T07:03:09.647Z,-4.20